createdAt,value
2018-04-17T00:01:31.206Z,7.90
2018-04-17T00:03:57.892Z,7.90
2018-04-17T00:06:25.136Z,7.90
2018-04-17T00:08:51.869Z,7.90
2018-04-17T00:11:18.613Z,7.90
2018-04-17T00:13:47.298Z,7.80
2018-04-17T00:16:14.135Z,7.80
2018-04-17T00:18:40.877Z,7.80
2018-04-17T00:21:07.825Z,7.80
2018-04-17T00:23:34.560Z,7.80
2018-04-17T00:26:01.407Z,7.80
2018-04-17T00:28:28.256Z,7.70
2018-04-17T00:30:55.091Z,7.70
2018-04-17T00:33:21.736Z,7.70
2018-04-17T00:35:48.571Z,7.60
2018-04-17T00:38:15.412Z,7.60
2018-04-17T00:40:42.153Z,7.60
2018-04-17T00:43:08.994Z,7.60
2018-04-17T00:45:35.806Z,7.60
2018-04-17T00:48:03.295Z,7.40
2018-04-17T00:50:30.134Z,7.40
2018-04-17T00:52:56.877Z,7.40
2018-04-17T00:55:23.720Z,7.30
2018-04-17T00:57:50.455Z,7.30
2018-04-17T01:00:17.289Z,7.20
2018-04-17T01:02:44.038Z,7.10
2018-04-17T01:05:10.979Z,7.10
2018-04-17T01:07:37.723Z,7.00
2018-04-17T01:10:04.567Z,7.00
2018-04-17T01:12:31.294Z,7.00
2018-04-17T01:14:58.562Z,6.90
2018-04-17T01:17:25.404Z,6.90
2018-04-17T01:19:52.139Z,6.90
2018-04-17T01:22:18.981Z,6.90
2018-04-17T01:24:45.725Z,6.90
2018-04-17T01:27:12.555Z,6.80
2018-04-17T01:29:39.410Z,6.80
2018-04-17T01:32:06.261Z,6.80
2018-04-17T01:34:33.093Z,6.80
2018-04-17T01:36:59.943Z,6.70
2018-04-17T01:39:26.781Z,6.70
2018-04-17T01:41:53.618Z,6.70
2018-04-17T01:44:20.566Z,6.60
2018-04-17T01:46:47.409Z,6.60
2018-04-17T01:49:14.145Z,6.50
2018-04-17T01:51:41.704Z,6.50
2018-04-17T01:54:08.371Z,6.50
2018-04-17T01:56:35.804Z,6.50
2018-04-17T01:59:02.488Z,6.40
2018-04-17T02:01:29.392Z,6.40
2018-04-17T02:03:56.229Z,6.30
2018-04-17T02:06:22.905Z,6.30
2018-04-17T02:08:49.782Z,6.20
2018-04-17T02:11:16.551Z,6.20
2018-04-17T02:13:43.395Z,6.10
2018-04-17T02:16:10.543Z,6.10
2018-04-17T02:18:37.385Z,6.10
2018-04-17T02:21:04.228Z,6.10
2018-04-17T02:23:31.174Z,6.00
2018-04-17T02:25:58.015Z,6.00
2018-04-17T02:28:25.165Z,6.00
2018-04-17T02:30:51.847Z,5.90
2018-04-17T02:33:19.250Z,5.90
2018-04-17T02:35:46.102Z,5.90
2018-04-17T02:38:12.945Z,5.80
2018-04-17T02:40:39.781Z,5.80
2018-04-17T02:43:06.480Z,5.80
2018-04-17T02:45:33.443Z,5.80
2018-04-17T02:48:00.146Z,5.70
2018-04-17T02:50:27.770Z,5.70
2018-04-17T02:52:54.818Z,5.70
2018-04-17T02:55:21.654Z,5.60
2018-04-17T02:57:48.318Z,5.60
2018-04-17T03:00:15.135Z,5.60
2018-04-17T03:02:42.082Z,5.60
2018-04-17T03:05:08.925Z,5.50
2018-04-17T03:07:35.767Z,5.50
2018-04-17T03:10:02.814Z,5.50
2018-04-17T03:12:29.652Z,5.50
2018-04-17T03:14:56.604Z,5.50
2018-04-17T03:17:23.648Z,5.50
2018-04-17T03:19:51.312Z,5.50
2018-04-17T03:22:18.146Z,5.50
2018-04-17T03:24:44.993Z,5.50
2018-04-17T03:27:11.678Z,5.50
2018-04-17T03:29:39.290Z,5.50
2018-04-17T03:32:06.238Z,5.50
2018-04-17T03:34:32.959Z,5.50
2018-04-17T03:36:59.630Z,5.50
2018-04-17T03:39:26.350Z,5.50
2018-04-17T03:41:53.044Z,5.50
2018-04-17T03:44:20.652Z,5.50
2018-04-17T03:46:47.400Z,5.50
2018-04-17T03:49:14.337Z,5.50
2018-04-17T03:51:40.991Z,5.40
2018-04-17T03:54:07.812Z,5.50
2018-04-17T03:56:34.632Z,5.40
2018-04-17T03:59:01.395Z,5.40
2018-04-17T04:01:28.343Z,5.40
2018-04-17T04:03:55.188Z,5.40
2018-04-17T04:06:21.922Z,5.50
2018-04-17T04:08:48.668Z,5.50
2018-04-17T04:11:15.611Z,5.50
2018-04-17T04:13:42.453Z,5.50
2018-04-17T04:16:21.583Z,5.60
2018-04-17T04:19:00.427Z,5.60
2018-04-17T04:24:44.440Z,5.60
2018-04-17T04:27:11.241Z,5.60
2018-04-17T04:29:38.770Z,5.60
2018-04-17T04:32:05.612Z,5.60
2018-04-17T04:34:32.864Z,5.70
2018-04-17T04:36:59.707Z,5.70
2018-04-17T04:39:26.554Z,5.70
2018-04-17T04:41:53.387Z,5.70
2018-04-17T04:44:20.233Z,5.80
2018-04-17T04:46:46.974Z,5.80
2018-04-17T04:49:13.816Z,5.80
2018-04-17T04:51:40.659Z,5.90
2018-04-17T04:54:07.314Z,5.90
2018-04-17T04:56:33.985Z,5.90
2018-04-17T04:59:00.882Z,6.00
2018-04-17T05:01:27.554Z,6.00
2018-04-17T05:03:54.763Z,6.10
2018-04-17T05:06:21.479Z,6.10
2018-04-17T05:08:48.242Z,6.10
2018-04-17T05:11:15.083Z,6.20
2018-04-17T05:13:41.846Z,6.30
2018-04-17T05:16:08.676Z,6.30
2018-04-17T05:18:35.514Z,6.40
2018-04-17T05:21:02.461Z,6.50
2018-04-17T05:23:29.199Z,6.50
2018-04-17T05:25:56.042Z,6.50
2018-04-17T05:28:22.778Z,6.50
2018-04-17T05:30:49.627Z,6.60
2018-04-17T05:33:16.305Z,6.70
2018-04-17T05:35:43.205Z,6.80
2018-04-17T05:38:10.049Z,6.90
2018-04-17T05:40:36.891Z,7.00
2018-04-17T05:43:03.734Z,7.10
2018-04-17T05:45:30.410Z,7.20
2018-04-17T05:47:57.213Z,7.30
2018-04-17T05:50:24.154Z,7.40
2018-04-17T05:52:50.969Z,7.50
2018-04-17T05:55:18.450Z,7.60
2018-04-17T05:57:45.300Z,7.60
2018-04-17T06:00:11.994Z,7.70
2018-04-17T06:02:38.779Z,7.80
2018-04-17T06:05:05.720Z,7.90
2018-04-17T06:07:32.459Z,8.00
2018-04-17T06:09:59.144Z,8.10
2018-04-17T06:12:25.842Z,8.20
2018-04-17T06:14:52.917Z,8.30
2018-04-17T06:17:19.730Z,8.40
2018-04-17T06:19:46.675Z,8.50
2018-04-17T06:22:13.357Z,8.60
2018-04-17T06:24:40.257Z,8.60
2018-04-17T06:27:07.095Z,8.70
2018-04-17T06:29:34.044Z,8.90
2018-04-17T06:32:00.783Z,9.10
2018-04-17T06:34:27.934Z,9.20
2018-04-17T06:36:54.591Z,9.30
2018-04-17T06:39:21.414Z,9.60
2018-04-17T06:41:48.378Z,10.00
2018-04-17T06:44:15.301Z,10.50
2018-04-17T06:46:42.140Z,10.80
2018-04-17T06:49:08.887Z,11.20
2018-04-17T06:51:35.829Z,11.30
2018-04-17T06:54:02.774Z,11.50
2018-04-17T06:56:29.719Z,11.80
2018-04-17T06:58:56.450Z,12.20
2018-04-17T07:01:23.196Z,12.40
2018-04-17T07:03:49.939Z,12.30
2018-04-17T07:06:16.985Z,12.30
2018-04-17T07:08:43.638Z,12.50
2018-04-17T07:11:10.363Z,12.80
2018-04-17T07:13:37.183Z,13.10
2018-04-17T07:16:04.048Z,13.40
2018-04-17T07:18:30.891Z,13.70
2018-04-17T07:20:57.733Z,14.10
2018-04-17T07:23:24.574Z,14.40
2018-04-17T07:25:51.409Z,14.70
2018-04-17T07:28:18.159Z,14.90
2018-04-17T07:30:44.893Z,15.10
2018-04-17T07:33:11.839Z,15.40
2018-04-17T07:35:38.677Z,15.50
2018-04-17T07:38:05.523Z,15.60
2018-04-17T07:40:32.525Z,15.80
2018-04-17T07:43:00.129Z,16.50
2018-04-17T07:45:26.974Z,16.50
2018-04-17T07:48:06.516Z,16.70
2018-04-17T07:50:33.209Z,16.70
2018-04-17T07:53:00.711Z,17.20
2018-04-17T07:55:27.557Z,17.20
2018-04-17T07:57:54.289Z,17.50
2018-04-17T08:00:21.545Z,17.80
2018-04-17T08:02:48.284Z,17.90
2018-04-17T08:05:14.917Z,18.00
2018-04-17T08:07:41.866Z,18.20
2018-04-17T08:10:08.607Z,18.50
2018-04-17T08:12:35.452Z,18.70
2018-04-17T08:15:02.292Z,18.80
2018-04-17T08:17:28.970Z,18.90
2018-04-17T08:19:55.614Z,18.90
2018-04-17T08:22:22.610Z,19.10
2018-04-17T08:24:49.353Z,19.40
2018-04-17T08:27:16.094Z,19.60
2018-04-17T08:29:42.762Z,19.80
2018-04-17T08:32:09.569Z,20.00
2018-04-17T08:34:36.421Z,20.20
2018-04-17T08:37:03.177Z,20.40
2018-04-17T08:39:31.124Z,20.50
2018-04-17T08:41:58.070Z,20.60
2018-04-17T08:44:25.244Z,20.60
2018-04-17T08:46:51.913Z,20.80
2018-04-17T08:49:19.317Z,21.10
2018-04-17T08:51:46.114Z,21.10
2018-04-17T08:54:13.610Z,21.20
2018-04-17T08:56:40.455Z,21.20
2018-04-17T08:59:07.399Z,21.30
2018-04-17T09:01:34.017Z,21.50
2018-04-17T09:04:00.772Z,21.60
2018-04-17T09:06:27.513Z,21.70
2018-04-17T09:08:54.460Z,21.70
2018-04-17T09:11:21.405Z,21.80
2018-04-17T09:13:48.359Z,21.90
2018-04-17T09:16:15.089Z,22.00
2018-04-17T09:18:41.932Z,22.20
2018-04-17T09:21:09.209Z,22.30
2018-04-17T09:23:35.988Z,22.40
2018-04-17T09:26:03.585Z,22.40
2018-04-17T09:28:30.326Z,22.30
2018-04-17T09:30:57.271Z,22.40
2018-04-17T09:33:24.113Z,22.50
2018-04-17T09:35:50.853Z,22.70
2018-04-17T09:38:17.590Z,22.80
2018-04-17T09:40:44.538Z,22.80
2018-04-17T09:43:11.380Z,23.00
2018-04-17T09:45:38.222Z,23.20
2018-04-17T09:48:04.905Z,23.30
2018-04-17T09:50:31.756Z,23.40
2018-04-17T09:52:59.261Z,23.60
2018-04-17T09:55:25.997Z,23.60
2018-04-17T09:57:52.945Z,23.60
2018-04-17T10:00:19.784Z,23.50
2018-04-17T10:02:46.630Z,23.50
2018-04-17T10:05:13.473Z,23.60
2018-04-17T10:07:40.239Z,23.60
2018-04-17T10:10:06.918Z,23.30
2018-04-17T10:12:34.409Z,23.00
2018-04-17T10:15:01.248Z,22.90
2018-04-17T10:17:28.158Z,22.90
2018-04-17T10:19:55.039Z,23.00
2018-04-17T10:22:22.392Z,23.10
2018-04-17T10:24:49.337Z,23.40
2018-04-17T10:27:15.981Z,23.50
2018-04-17T10:29:42.817Z,23.50
2018-04-17T10:32:09.579Z,23.50
2018-04-17T10:34:36.981Z,23.80
2018-04-17T10:37:04.573Z,23.70
2018-04-17T10:39:31.309Z,23.70
2018-04-17T10:41:58.261Z,23.60
2018-04-17T10:44:25.102Z,23.30
2018-04-17T10:46:51.756Z,23.40
2018-04-17T10:49:18.585Z,23.30
2018-04-17T10:51:45.422Z,23.30
2018-04-17T10:54:12.265Z,23.30
2018-04-17T10:56:39.121Z,23.30
2018-04-17T10:59:06.662Z,23.30
2018-04-17T11:01:33.402Z,23.30
2018-04-17T11:04:00.270Z,23.30
2018-04-17T11:06:27.087Z,23.40
2018-04-17T11:08:53.738Z,23.40
2018-04-17T11:11:20.676Z,23.50
2018-04-17T11:13:47.511Z,23.60
2018-04-17T11:16:14.707Z,23.60
2018-04-17T11:18:41.916Z,23.80
2018-04-17T11:21:08.865Z,23.80
2018-04-17T11:23:36.007Z,23.80
2018-04-17T11:26:02.810Z,23.70
2018-04-17T11:28:30.411Z,23.60
2018-04-17T11:30:57.356Z,23.60
2018-04-17T11:33:24.142Z,23.60
2018-04-17T11:35:51.143Z,23.60
2018-04-17T11:38:17.946Z,23.60
2018-04-17T11:40:45.848Z,24.00
2018-04-17T11:43:12.796Z,24.00
2018-04-17T11:45:39.537Z,24.10
2018-04-17T11:48:06.481Z,24.10
2018-04-17T11:50:33.238Z,24.00
2018-04-17T11:53:00.057Z,24.00
2018-04-17T11:55:27.008Z,23.90
2018-04-17T11:57:53.749Z,23.80
2018-04-17T12:00:20.593Z,23.70
2018-04-17T12:02:47.438Z,23.60
2018-04-17T12:05:14.441Z,23.50
2018-04-17T12:07:42.857Z,23.40
2018-04-17T12:10:09.618Z,23.40
2018-04-17T12:12:36.440Z,23.50
2018-04-17T12:15:03.278Z,23.50
2018-04-17T12:17:30.026Z,23.70
2018-04-17T12:19:56.761Z,23.70
2018-04-17T12:22:23.698Z,23.70
2018-04-17T12:24:50.471Z,23.80
2018-04-17T12:27:17.159Z,23.90
2018-04-17T12:29:43.893Z,23.90
2018-04-17T12:32:10.645Z,23.90
2018-04-17T12:34:37.387Z,23.90
2018-04-17T12:37:04.858Z,23.70
2018-04-17T12:39:31.490Z,23.70
2018-04-17T12:41:58.180Z,23.60
2018-04-17T12:44:25.508Z,23.50
2018-04-17T12:46:52.219Z,23.40
2018-04-17T12:49:18.922Z,23.40
2018-04-17T12:51:45.658Z,23.40
2018-04-17T12:54:12.370Z,23.40
2018-04-17T12:56:39.138Z,23.40
2018-04-17T12:59:05.843Z,23.50
2018-04-17T13:01:32.550Z,23.60
2018-04-17T13:04:00.123Z,23.40
2018-04-17T13:06:26.833Z,23.40
2018-04-17T13:08:54.246Z,23.40
2018-04-17T13:11:20.935Z,23.40
2018-04-17T13:13:47.600Z,23.40
2018-04-17T13:16:14.717Z,23.50
2018-04-17T13:18:42.117Z,23.50
2018-04-17T13:21:08.845Z,23.50
2018-04-17T13:23:35.529Z,23.50
2018-04-17T13:26:02.194Z,23.50
2018-04-17T13:28:29.707Z,23.40
2018-04-17T13:30:56.443Z,23.40
2018-04-17T13:33:23.179Z,23.50
2018-04-17T13:35:49.926Z,23.40
2018-04-17T13:38:17.361Z,23.30
2018-04-17T13:40:44.377Z,23.30
2018-04-17T13:43:11.053Z,23.20
2018-04-17T13:45:38.562Z,22.80
2018-04-17T13:48:05.672Z,22.80
2018-04-17T13:50:32.386Z,22.90
2018-04-17T13:52:59.078Z,22.80
2018-04-17T13:55:26.463Z,22.90
2018-04-17T13:57:55.300Z,22.90
2018-04-17T14:00:21.987Z,22.90
2018-04-17T14:02:48.726Z,23.00
2018-04-17T14:05:15.603Z,23.00
2018-04-17T14:07:42.230Z,23.00
2018-04-17T14:10:08.973Z,23.00
2018-04-17T14:12:35.634Z,23.00
2018-04-17T14:15:02.386Z,23.20
2018-04-17T14:17:29.156Z,23.20
2018-04-17T14:19:55.866Z,23.30
2018-04-17T14:22:22.522Z,23.30
2018-04-17T14:24:49.307Z,23.30
2018-04-17T14:27:15.984Z,23.20
2018-04-17T14:29:42.780Z,23.20
2018-04-17T14:32:09.520Z,23.10
2018-04-17T14:34:36.255Z,23.20
2018-04-17T14:37:03.064Z,23.30
2018-04-17T14:39:29.782Z,23.20
2018-04-17T14:41:56.439Z,23.10
2018-04-17T14:44:23.274Z,23.20
2018-04-17T14:46:50.715Z,23.20
2018-04-17T14:49:17.430Z,23.20
2018-04-17T14:51:44.162Z,23.20
2018-04-17T14:54:10.879Z,23.30
2018-04-17T14:56:37.621Z,23.20
2018-04-17T14:59:05.147Z,23.10
2018-04-17T15:01:32.686Z,23.10
2018-04-17T15:03:59.467Z,23.10
2018-04-17T15:06:26.214Z,23.10
2018-04-17T15:08:52.992Z,23.00
2018-04-17T15:11:19.727Z,23.00
2018-04-17T15:13:46.489Z,23.00
2018-04-17T15:16:13.212Z,23.00
2018-04-17T15:18:40.927Z,22.90
2018-04-17T15:21:08.457Z,22.80
2018-04-17T15:23:35.187Z,22.80
2018-04-17T15:26:01.958Z,22.80
2018-04-17T15:28:29.150Z,22.70
2018-04-17T15:30:55.886Z,22.50
2018-04-17T15:33:22.629Z,22.30
2018-04-17T15:35:49.366Z,22.20
2018-04-17T15:38:16.830Z,22.20
2018-04-17T15:40:43.586Z,22.20
2018-04-17T15:43:10.273Z,22.10
2018-04-17T15:45:37.751Z,21.90
2018-04-17T15:48:04.411Z,21.80
2018-04-17T15:50:31.184Z,21.80
2018-04-17T15:52:57.930Z,21.80
2018-04-17T15:55:24.702Z,21.80
2018-04-17T15:57:51.479Z,21.80
2018-04-17T16:00:18.178Z,21.70
2018-04-17T16:02:45.560Z,21.50
2018-04-17T16:05:12.287Z,21.60
2018-04-17T16:07:38.992Z,21.50
2018-04-17T16:10:06.446Z,21.40
2018-04-17T16:12:33.160Z,21.50
2018-04-17T16:14:59.874Z,21.50
2018-04-17T16:17:27.021Z,21.40
2018-04-17T16:19:53.861Z,21.40
2018-04-17T16:22:20.547Z,21.40
2018-04-17T16:24:47.446Z,21.50
2018-04-17T16:27:14.694Z,21.50
2018-04-17T16:29:41.548Z,21.50
2018-04-17T16:32:08.252Z,21.50
2018-04-17T16:34:35.119Z,21.50
2018-04-17T16:37:02.067Z,21.30
2018-04-17T16:39:29.012Z,21.10
2018-04-17T16:41:55.753Z,21.10
2018-04-17T16:44:22.827Z,21.00
2018-04-17T16:46:49.637Z,20.90
2018-04-17T16:49:16.354Z,20.80
2018-04-17T16:51:43.327Z,20.80
2018-04-17T16:54:10.067Z,20.70
2018-04-17T16:56:36.726Z,20.70
2018-04-17T16:59:03.546Z,20.60
2018-04-17T17:01:30.213Z,20.50
2018-04-17T17:03:57.026Z,20.30
2018-04-17T17:06:23.864Z,20.20
2018-04-17T17:08:50.608Z,20.10
2018-04-17T17:11:17.449Z,20.00
2018-04-17T17:13:44.395Z,20.00
2018-04-17T17:16:11.241Z,19.90
2018-04-17T17:18:37.914Z,19.80
2018-04-17T17:21:05.018Z,19.70
2018-04-17T17:23:32.072Z,19.60
2018-04-17T17:25:58.818Z,19.60
2018-04-17T17:28:25.652Z,19.50
2018-04-17T17:30:52.599Z,19.40
2018-04-17T17:33:19.544Z,19.40
2018-04-17T17:35:47.044Z,19.30
2018-04-17T17:38:13.993Z,19.40
2018-04-17T17:40:40.962Z,19.30
2018-04-17T17:43:07.730Z,19.30
2018-04-17T17:45:34.573Z,19.10
2018-04-17T17:48:01.415Z,19.10
2018-04-17T17:50:28.565Z,19.00
2018-04-17T17:52:55.510Z,18.90
2018-04-17T17:55:22.660Z,18.90
2018-04-17T17:57:50.153Z,18.70
2018-04-17T18:00:17.470Z,18.70
2018-04-17T18:02:44.208Z,18.60
2018-04-17T18:05:10.962Z,18.50
2018-04-17T18:07:37.789Z,18.50
2018-04-17T18:10:04.637Z,18.40
2018-04-17T18:12:31.817Z,18.30
2018-04-17T18:14:58.623Z,18.20
2018-04-17T18:17:25.261Z,18.10
2018-04-17T18:19:52.001Z,17.90
2018-04-17T18:22:18.751Z,17.80
2018-04-17T18:24:45.586Z,17.70
2018-04-17T18:27:12.429Z,17.60
2018-04-17T18:29:39.266Z,17.40
2018-04-17T18:32:06.177Z,17.20
2018-04-17T18:34:32.840Z,17.10
2018-04-17T18:36:59.593Z,16.90
2018-04-17T18:39:26.328Z,16.80
2018-04-17T18:41:53.482Z,16.80
2018-04-17T18:44:20.324Z,16.60
2018-04-17T18:46:47.117Z,16.50
2018-04-17T18:49:13.796Z,16.40
2018-04-17T18:51:40.543Z,16.30
2018-04-17T18:54:07.488Z,16.20
2018-04-17T18:56:34.330Z,16.10
2018-04-17T18:59:01.173Z,16.00
2018-04-17T19:01:27.889Z,15.90
2018-04-17T19:03:54.619Z,15.80
2018-04-17T19:06:22.315Z,15.60
2018-04-17T19:08:49.053Z,15.60
2018-04-17T19:11:15.994Z,15.50
2018-04-17T19:13:42.657Z,15.40
2018-04-17T19:16:09.474Z,15.20
2018-04-17T19:18:36.421Z,15.10
2018-04-17T19:21:03.268Z,15.00
2018-04-17T19:23:30.006Z,14.90
2018-04-17T19:25:56.735Z,14.90
2018-04-17T19:28:23.583Z,14.80
2018-04-17T19:30:50.420Z,14.70
2018-04-17T19:33:17.268Z,14.60
2018-04-17T19:35:44.007Z,14.40
2018-04-17T19:38:10.854Z,14.40
2018-04-17T19:40:37.581Z,14.30
2018-04-17T19:43:04.539Z,14.20
2018-04-17T19:45:31.422Z,14.10
2018-04-17T19:47:59.167Z,13.90
2018-04-17T19:50:26.493Z,13.80
2018-04-17T19:52:53.234Z,13.80
2018-04-17T19:55:20.080Z,13.80
2018-04-17T19:57:46.817Z,13.70
2018-04-17T20:00:13.634Z,13.60
2018-04-17T20:02:40.506Z,13.50
2018-04-17T20:05:07.237Z,13.40
2018-04-17T20:07:34.090Z,13.30
2018-04-17T20:10:00.851Z,13.20
2018-04-17T20:12:27.667Z,13.20
2018-04-17T20:14:54.513Z,13.10
2018-04-17T20:17:21.760Z,13.00
2018-04-17T20:19:48.609Z,12.90
2018-04-17T20:22:15.449Z,12.90
2018-04-17T20:24:42.291Z,12.80
2018-04-17T20:27:09.026Z,12.70
2018-04-17T20:29:35.767Z,12.70
2018-04-17T20:32:02.613Z,12.60
2018-04-17T20:34:29.457Z,12.60
2018-04-17T20:36:56.400Z,12.50
2018-04-17T20:39:23.338Z,12.50
2018-04-17T20:41:50.075Z,12.40
2018-04-17T20:44:16.802Z,12.40
2018-04-17T20:46:44.590Z,12.30
2018-04-17T20:49:11.313Z,12.30
2018-04-17T20:51:38.172Z,12.20
2018-04-17T20:54:05.013Z,12.20
2018-04-17T20:56:32.061Z,12.10
2018-04-17T20:58:58.903Z,12.00
2018-04-17T21:01:25.594Z,12.00
2018-04-17T21:03:53.305Z,11.90
2018-04-17T21:06:20.251Z,11.90
2018-04-17T21:08:47.093Z,11.80
2018-04-17T21:11:14.143Z,11.80
2018-04-17T21:13:40.902Z,11.70
2018-04-17T21:16:07.722Z,11.70
2018-04-17T21:18:34.534Z,11.60
2018-04-17T21:21:02.118Z,11.60
2018-04-17T21:23:28.960Z,11.60
2018-04-17T21:25:55.909Z,11.50
2018-04-17T21:28:22.743Z,11.50
2018-04-17T21:30:49.697Z,11.40
2018-04-17T21:33:16.537Z,11.40
2018-04-17T21:35:43.381Z,11.30
2018-04-17T21:38:10.073Z,11.30
2018-04-17T21:40:36.965Z,11.30
2018-04-17T21:43:03.806Z,11.30
2018-04-17T21:45:30.648Z,11.30
2018-04-17T21:47:57.490Z,11.20
2018-04-17T21:50:24.333Z,11.10
2018-04-17T21:52:51.277Z,11.10
2018-04-17T21:55:17.917Z,11.10
2018-04-17T21:57:44.655Z,11.00
2018-04-17T22:00:11.498Z,11.10
2018-04-17T22:02:38.749Z,11.00
2018-04-17T22:05:05.489Z,11.00
2018-04-17T22:07:32.173Z,11.00
2018-04-17T22:09:58.968Z,11.00
2018-04-17T22:12:25.908Z,11.00
2018-04-17T22:14:52.616Z,11.00
2018-04-17T22:17:19.393Z,10.90
2018-04-17T22:19:46.229Z,10.90
2018-04-17T22:22:12.967Z,10.90
2018-04-17T22:24:39.739Z,10.80
2018-04-17T22:27:06.558Z,10.80
2018-04-17T22:29:33.400Z,10.80
2018-04-17T22:32:00.238Z,10.70
2018-04-17T22:34:27.089Z,10.70
2018-04-17T22:36:54.336Z,10.70
2018-04-17T22:39:21.175Z,10.60
2018-04-17T22:41:48.021Z,10.60
2018-04-17T22:44:14.966Z,10.60
2018-04-17T22:46:41.798Z,10.50
2018-04-17T22:49:08.649Z,10.50
2018-04-17T22:51:35.374Z,10.50
2018-04-17T22:54:02.230Z,10.40
2018-04-17T22:56:29.075Z,10.40
2018-04-17T22:58:55.914Z,10.30
2018-04-17T23:01:22.653Z,10.30
2018-04-17T23:03:49.577Z,10.20
2018-04-17T23:06:16.342Z,10.20
2018-04-17T23:08:42.977Z,10.10
2018-04-17T23:11:09.928Z,10.10
2018-04-17T23:13:36.661Z,10.00
2018-04-17T23:16:03.503Z,10.00
2018-04-17T23:18:30.303Z,9.90
2018-04-17T23:20:57.294Z,9.90
2018-04-17T23:23:24.136Z,9.80
2018-04-17T23:25:50.876Z,9.80
2018-04-17T23:28:17.814Z,9.70
2018-04-17T23:30:44.767Z,9.70
2018-04-17T23:33:11.461Z,9.60
2018-04-17T23:35:38.347Z,9.60
2018-04-17T23:38:05.569Z,9.60
2018-04-17T23:40:33.160Z,9.50
2018-04-17T23:43:00.106Z,9.50
2018-04-17T23:45:26.849Z,9.50
2018-04-17T23:47:53.503Z,9.40
2018-04-17T23:50:20.320Z,9.40
2018-04-17T23:52:47.166Z,9.40
2018-04-17T23:55:14.111Z,9.30
2018-04-17T23:57:40.754Z,9.30
